Terminal Aerodrome Forecast
Issued by NWS Shreveport, LA

Home | Current Version | Previous Version | Text Only | Print | Product List | Glossary On
Versions: 1 2 3 4 5 6 7 8 9 10 11 12 13
577
FTUS44 KSHV 211744
TAFSHV
TAF
KSHV 211744Z 2118/2218 15006KT P6SM SCT020 BKN040
      TEMPO 2119/2123 BKN020
     FM212300 VRB04KT P6SM SCT025 BKN035
     FM220300 01006KT P6SM BKN035
     FM220800 01011KT P6SM SCT035 SCT250
     FM221000 01012KT P6SM SKC=

USA.gov is the U.S. government's official web portal to all federal, state and local government web resources and services.